sensor_id;sensor_type;location;lat;lon;timestamp;pressure;altitude;pressure_sealevel;temperature;humidity
22333;BME280;11334;36.986;-121.936;2023-03-12T00:01:54;101211.50;;;15.85;100.00
22333;BME280;11334;36.986;-121.936;2023-03-12T00:04:20;101212.53;;;15.84;100.00
22333;BME280;11334;36.986;-121.936;2023-03-12T00:06:47;101213.72;;;15.81;100.00
22333;BME280;11334;36.986;-121.936;2023-03-12T00:09:13;101214.41;;;15.76;100.00
22333;BME280;11334;36.986;-121.936;2023-03-12T00:11:39;101205.25;;;15.70;100.00
22333;BME280;11334;36.986;-121.936;2023-03-12T00:14:05;101222.06;;;15.79;100.00
22333;BME280;11334;36.986;-121.936;2023-03-12T00:16:34;101218.94;;;15.75;100.00
22333;BME280;11334;36.986;-121.936;2023-03-12T00:19:01;101209.00;;;15.61;100.00
22333;BME280;11334;36.986;-121.936;2023-03-12T00:21:28;101224.25;;;15.75;100.00
22333;BME280;11334;36.986;-121.936;2023-03-12T00:23:54;101222.63;;;15.74;100.00
22333;BME280;11334;36.986;-121.936;2023-03-12T00:26:21;101220.28;;;15.71;100.00
22333;BME280;11334;36.986;-121.936;2023-03-12T00:28:48;101229.00;;;15.65;100.00
22333;BME280;11334;36.986;-121.936;2023-03-12T00:31:23;101229.00;;;15.65;100.00
22333;BME280;11334;36.986;-121.936;2023-03-12T00:33:52;101229.38;;;15.62;100.00
22333;BME280;11334;36.986;-121.936;2023-03-12T00:36:22;101233.34;;;15.66;100.00
22333;BME280;11334;36.986;-121.936;2023-03-12T00:38:50;101235.19;;;15.66;100.00
22333;BME280;11334;36.986;-121.936;2023-03-12T00:41:16;101229.19;;;15.64;100.00
22333;BME280;11334;36.986;-121.936;2023-03-12T00:43:45;101237.63;;;15.75;100.00
22333;BME280;11334;36.986;-121.936;2023-03-12T00:46:12;101239.47;;;15.75;100.00
22333;BME280;11334;36.986;-121.936;2023-03-12T00:48:38;101238.88;;;15.65;100.00
22333;BME280;11334;36.986;-121.936;2023-03-12T00:51:05;101246.69;;;15.66;100.00
22333;BME280;11334;36.986;-121.936;2023-03-12T00:53:32;101231.38;;;15.60;100.00
22333;BME280;11334;36.986;-121.936;2023-03-12T00:55:58;101245.41;;;15.62;100.00
22333;BME280;11334;36.986;-121.936;2023-03-12T00:58:24;101244.22;;;15.65;100.00
22333;BME280;11334;36.986;-121.936;2023-03-12T01:00:51;101260.25;;;15.65;100.00
22333;BME280;11334;36.986;-121.936;2023-03-12T01:03:17;101256.09;;;15.62;100.00
22333;BME280;11334;36.986;-121.936;2023-03-12T01:05:43;101262.72;;;15.66;100.00
22333;BME280;11334;36.986;-121.936;2023-03-12T01:08:10;101260.25;;;15.65;100.00
22333;BME280;11334;36.986;-121.936;2023-03-12T01:10:40;101279.81;;;15.57;100.00
22333;BME280;11334;36.986;-121.936;2023-03-12T01:13:07;101274.28;;;15.59;100.00
22333;BME280;11334;36.986;-121.936;2023-03-12T01:15:33;101287.66;;;15.59;100.00
22333;BME280;11334;36.986;-121.936;2023-03-12T01:18:00;101280.66;;;15.58;100.00
22333;BME280;11334;36.986;-121.936;2023-03-12T01:20:26;101275.81;;;15.53;100.00
22333;BME280;11334;36.986;-121.936;2023-03-12T01:22:52;101291.34;;;15.58;100.00
22333;BME280;11334;36.986;-121.936;2023-03-12T01:25:19;101278.03;;;15.50;100.00
22333;BME280;11334;36.986;-121.936;2023-03-12T01:27:45;101256.56;;;15.36;100.00
22333;BME280;11334;36.986;-121.936;2023-03-12T01:30:12;101280.19;;;15.54;100.00
22333;BME280;11334;36.986;-121.936;2023-03-12T01:32:38;101282.53;;;15.49;100.00
22333;BME280;11334;36.986;-121.936;2023-03-12T01:35:05;101275.00;;;15.53;100.00
22333;BME280;11334;36.986;-121.936;2023-03-12T01:37:32;101276.34;;;15.49;100.00
22333;BME280;11334;36.986;-121.936;2023-03-12T01:39:59;101282.25;;;15.45;100.00
22333;BME280;11334;36.986;-121.936;2023-03-12T01:42:25;101277.88;;;15.44;100.00
22333;BME280;11334;36.986;-121.936;2023-03-12T01:44:58;101265.72;;;15.41;100.00
22333;BME280;11334;36.986;-121.936;2023-03-12T01:47:26;101266.53;;;15.42;100.00
22333;BME280;11334;36.986;-121.936;2023-03-12T01:49:57;101263.53;;;15.45;100.00
22333;BME280;11334;36.986;-121.936;2023-03-12T01:52:33;101271.56;;;15.45;100.00
22333;BME280;11334;36.986;-121.936;2023-03-12T01:55:05;101269.34;;;15.48;100.00
22333;BME280;11334;36.986;-121.936;2023-03-12T01:57:37;101274.84;;;15.47;100.00
22333;BME280;11334;36.986;-121.936;2023-03-12T02:00:12;101278.91;;;15.43;100.00
22333;BME280;11334;36.986;-121.936;2023-03-12T02:02:39;101275.03;;;15.45;100.00
22333;BME280;11334;36.986;-121.936;2023-03-12T02:05:28;101286.41;;;15.47;100.00
22333;BME280;11334;36.986;-121.936;2023-03-12T02:07:55;101287.22;;;15.48;100.00
22333;BME280;11334;36.986;-121.936;2023-03-12T02:10:24;101298.88;;;15.47;100.00
22333;BME280;11334;36.986;-121.936;2023-03-12T02:12:52;101294.72;;;15.44;100.00
22333;BME280;11334;36.986;-121.936;2023-03-12T02:15:18;101290.25;;;15.37;100.00
22333;BME280;11334;36.986;-121.936;2023-03-12T02:17:45;101283.97;;;15.30;100.00
22333;BME280;11334;36.986;-121.936;2023-03-12T02:20:19;101292.78;;;15.38;100.00
22333;BME280;11334;36.986;-121.936;2023-03-12T02:22:52;101296.78;;;15.34;100.00
22333;BME280;11334;36.986;-121.936;2023-03-12T02:25:41;101310.28;;;15.41;100.00
22333;BME280;11334;36.986;-121.936;2023-03-12T02:28:12;101313.97;;;15.40;100.00
22333;BME280;11334;36.986;-121.936;2023-03-12T02:30:41;101316.63;;;15.40;100.00
22333;BME280;11334;36.986;-121.936;2023-03-12T02:33:09;101313.47;;;15.36;100.00
22333;BME280;11334;36.986;-121.936;2023-03-12T02:35:36;101327.31;;;15.40;100.00
22333;BME280;11334;36.986;-121.936;2023-03-12T02:38:22;101325.63;;;15.39;100.00
22333;BME280;11334;36.986;-121.936;2023-03-12T02:40:49;101320.50;;;15.29;100.00
22333;BME280;11334;36.986;-121.936;2023-03-12T02:43:19;101326.00;;;15.36;100.00
22333;BME280;11334;36.986;-121.936;2023-03-12T02:45:46;101333.66;;;15.39;100.00
22333;BME280;11334;36.986;-121.936;2023-03-12T02:48:13;101338.00;;;15.40;100.00
22333;BME280;11334;36.986;-121.936;2023-03-12T02:50:39;101333.50;;;15.40;100.00
22333;BME280;11334;36.986;-121.936;2023-03-12T02:53:05;101349.88;;;15.37;100.00
22333;BME280;11334;36.986;-121.936;2023-03-12T02:55:31;101339.81;;;15.39;100.00
22333;BME280;11334;36.986;-121.936;2023-03-12T02:57:58;101344.16;;;15.40;100.00
22333;BME280;11334;36.986;-121.936;2023-03-12T03:00:24;101348.38;;;15.35;100.00
22333;BME280;11334;36.986;-121.936;2023-03-12T03:02:50;101344.84;;;15.34;100.00
22333;BME280;11334;36.986;-121.936;2023-03-12T03:05:16;101344.41;;;15.23;100.00
22333;BME280;11334;36.986;-121.936;2023-03-12T03:07:43;101357.72;;;15.31;100.00
22333;BME280;11334;36.986;-121.936;2023-03-12T03:10:09;101361.22;;;15.31;100.00
22333;BME280;11334;36.986;-121.936;2023-03-12T03:12:36;101359.06;;;15.35;100.00
22333;BME280;11334;36.986;-121.936;2023-03-12T03:15:03;101359.38;;;15.32;100.00
22333;BME280;11334;36.986;-121.936;2023-03-12T03:17:29;101367.38;;;15.32;100.00
22333;BME280;11334;36.986;-121.936;2023-03-12T03:19:56;101366.41;;;15.33;100.00
22333;BME280;11334;36.986;-121.936;2023-03-12T03:22:22;101357.88;;;15.29;100.00
22333;BME280;11334;36.986;-121.936;2023-03-12T03:24:48;101362.06;;;15.24;100.00
22333;BME280;11334;36.986;-121.936;2023-03-12T03:27:14;101371.22;;;15.29;100.00
22333;BME280;11334;36.986;-121.936;2023-03-12T03:29:44;101351.41;;;15.16;100.00
22333;BME280;11334;36.986;-121.936;2023-03-12T03:32:11;101369.56;;;15.28;100.00
22333;BME280;11334;36.986;-121.936;2023-03-12T03:34:37;101373.91;;;15.29;100.00
22333;BME280;11334;36.986;-121.936;2023-03-12T03:37:04;101374.22;;;15.34;100.00
22333;BME280;11334;36.986;-121.936;2023-03-12T03:39:30;101373.91;;;15.29;100.00
22333;BME280;11334;36.986;-121.936;2023-03-12T03:41:56;101365.91;;;15.21;100.00
22333;BME280;11334;36.986;-121.936;2023-03-12T03:44:22;101372.09;;;15.22;100.00
22333;BME280;11334;36.986;-121.936;2023-03-12T03:46:49;101374.59;;;15.23;100.00
22333;BME280;11334;36.986;-121.936;2023-03-12T03:49:15;101381.78;;;15.23;100.00
22333;BME280;11334;36.986;-121.936;2023-03-12T03:51:41;101381.75;;;15.31;100.00
22333;BME280;11334;36.986;-121.936;2023-03-12T03:54:09;101380.09;;;15.30;100.00
22333;BME280;11334;36.986;-121.936;2023-03-12T03:56:35;101383.25;;;15.33;100.00
22333;BME280;11334;36.986;-121.936;2023-03-12T03:59:02;101392.59;;;15.29;100.00
22333;BME280;11334;36.986;-121.936;2023-03-12T04:01:29;101398.47;;;15.25;100.00
22333;BME280;11334;36.986;-121.936;2023-03-12T04:03:56;101390.44;;;15.25;100.00
22333;BME280;11334;36.986;-121.936;2023-03-12T04:06:23;101389.44;;;15.26;100.00
22333;BME280;11334;36.986;-121.936;2023-03-12T04:08:49;101392.63;;;15.21;100.00
22333;BME280;11334;36.986;-121.936;2023-03-12T04:11:18;101393.78;;;15.19;100.00
22333;BME280;11334;36.986;-121.936;2023-03-12T04:13:45;101396.47;;;15.19;100.00
22333;BME280;11334;36.986;-121.936;2023-03-12T04:16:13;101403.47;;;15.20;100.00
22333;BME280;11334;36.986;-121.936;2023-03-12T04:18:39;101408.16;;;15.18;100.00
22333;BME280;11334;36.986;-121.936;2023-03-12T04:21:08;101410.31;;;15.15;100.00
22333;BME280;11334;36.986;-121.936;2023-03-12T04:23:35;101396.66;;;15.10;100.00
22333;BME280;11334;36.986;-121.936;2023-03-12T04:26:05;101406.81;;;15.14;100.00
22333;BME280;11334;36.986;-121.936;2023-03-12T04:28:32;101413.50;;;15.18;100.00
22333;BME280;11334;36.986;-121.936;2023-03-12T04:31:01;101416.97;;;15.18;100.00
22333;BME280;11334;36.986;-121.936;2023-03-12T04:33:29;101419.19;;;15.15;100.00
22333;BME280;11334;36.986;-121.936;2023-03-12T04:35:56;101423.81;;;15.21;100.00
22333;BME280;11334;36.986;-121.936;2023-03-12T04:38:23;101424.84;;;15.20;100.00
22333;BME280;11334;36.986;-121.936;2023-03-12T04:41:11;101428.84;;;15.16;100.00
22333;BME280;11334;36.986;-121.936;2023-03-12T04:43:39;101428.34;;;15.13;100.00
22333;BME280;11334;36.986;-121.936;2023-03-12T04:46:06;101432.69;;;15.14;100.00
22333;BME280;11334;36.986;-121.936;2023-03-12T04:48:34;101431.19;;;15.11;100.00
22333;BME280;11334;36.986;-121.936;2023-03-12T04:51:01;101433.50;;;15.14;100.00
22333;BME280;11334;36.986;-121.936;2023-03-12T04:53:27;101438.34;;;15.18;100.00
22333;BME280;11334;36.986;-121.936;2023-03-12T04:55:53;101434.03;;;15.18;100.00
22333;BME280;11334;36.986;-121.936;2023-03-12T04:58:20;101441.50;;;15.22;100.00
22333;BME280;11334;36.986;-121.936;2023-03-12T05:00:48;101431.84;;;15.21;100.00
22333;BME280;11334;36.986;-121.936;2023-03-12T05:03:15;101434.84;;;15.18;100.00
22333;BME280;11334;36.986;-121.936;2023-03-12T05:05:43;101439.66;;;15.15;100.00
22333;BME280;11334;36.986;-121.936;2023-03-12T05:08:09;101438.50;;;15.17;100.00
22333;BME280;11334;36.986;-121.936;2023-03-12T05:10:35;101442.84;;;15.18;100.00
22333;BME280;11334;36.986;-121.936;2023-03-12T05:13:01;101435.53;;;15.20;100.00
22333;BME280;11334;36.986;-121.936;2023-03-12T05:15:28;101440.00;;;15.19;100.00
22333;BME280;11334;36.986;-121.936;2023-03-12T05:17:54;101419.16;;;15.07;100.00
22333;BME280;11334;36.986;-121.936;2023-03-12T05:20:20;101437.31;;;15.19;100.00
22333;BME280;11334;36.986;-121.936;2023-03-12T05:22:46;101450.19;;;15.16;100.00
22333;BME280;11334;36.986;-121.936;2023-03-12T05:25:13;101459.22;;;15.15;100.00
22333;BME280;11334;36.986;-121.936;2023-03-12T05:27:39;101459.84;;;15.17;100.00
22333;BME280;11334;36.986;-121.936;2023-03-12T05:30:06;101459.69;;;15.18;100.00
22333;BME280;11334;36.986;-121.936;2023-03-12T05:32:33;101462.22;;;15.20;100.00
22333;BME280;11334;36.986;-121.936;2023-03-12T05:34:59;101461.22;;;15.13;100.00
22333;BME280;11334;36.986;-121.936;2023-03-12T05:37:26;101462.72;;;15.16;100.00
22333;BME280;11334;36.986;-121.936;2023-03-12T05:39:55;101466.72;;;15.12;100.00
22333;BME280;11334;36.986;-121.936;2023-03-12T05:42:23;101467.38;;;15.14;100.00
22333;BME280;11334;36.986;-121.936;2023-03-12T05:44:49;101463.06;;;15.13;100.00
22333;BME280;11334;36.986;-121.936;2023-03-12T05:47:16;101468.88;;;15.16;100.00
22333;BME280;11334;36.986;-121.936;2023-03-12T05:49:42;101468.53;;;15.11;100.00
22333;BME280;11334;36.986;-121.936;2023-03-12T05:52:09;101467.88;;;15.09;100.00
22333;BME280;11334;36.986;-121.936;2023-03-12T05:54:36;101461.19;;;15.05;100.00
22333;BME280;11334;36.986;-121.936;2023-03-12T05:57:02;101470.03;;;15.06;100.00
22333;BME280;11334;36.986;-121.936;2023-03-12T05:59:29;101451.16;;;14.99;100.00
22333;BME280;11334;36.986;-121.936;2023-03-12T06:01:56;101464.03;;;15.12;100.00
22333;BME280;11334;36.986;-121.936;2023-03-12T06:04:22;101474.22;;;15.16;100.00
22333;BME280;11334;36.986;-121.936;2023-03-12T06:06:48;101479.72;;;15.15;100.00
22333;BME280;11334;36.986;-121.936;2023-03-12T06:09:15;101475.03;;;15.09;100.00
22333;BME280;11334;36.986;-121.936;2023-03-12T06:11:41;101472.53;;;15.07;100.00
22333;BME280;11334;36.986;-121.936;2023-03-12T06:14:08;101479.91;;;15.13;100.00
22333;BME280;11334;36.986;-121.936;2023-03-12T06:16:34;101469.88;;;15.07;100.00
22333;BME280;11334;36.986;-121.936;2023-03-12T06:19:01;101469.00;;;15.07;100.00
22333;BME280;11334;36.986;-121.936;2023-03-12T06:21:31;101464.50;;;14.99;100.00
22333;BME280;11334;36.986;-121.936;2023-03-12T06:23:58;101458.88;;;15.02;100.00
22333;BME280;11334;36.986;-121.936;2023-03-12T06:26:25;101454.50;;;15.01;100.00
22333;BME280;11334;36.986;-121.936;2023-03-12T06:28:52;101456.34;;;15.01;100.00
22333;BME280;11334;36.986;-121.936;2023-03-12T06:31:20;101440.16;;;14.94;100.00
22333;BME280;11334;36.986;-121.936;2023-03-12T06:33:47;101452.03;;;15.00;100.00
22333;BME280;11334;36.986;-121.936;2023-03-12T06:36:13;101458.53;;;14.97;100.00
22333;BME280;11334;36.986;-121.936;2023-03-12T06:38:40;101454.38;;;14.95;100.00
22333;BME280;11334;36.986;-121.936;2023-03-12T06:41:12;101457.03;;;14.95;100.00
22333;BME280;11334;36.986;-121.936;2023-03-12T06:43:39;101457.84;;;14.95;100.00
22333;BME280;11334;36.986;-121.936;2023-03-12T06:46:07;101462.69;;;14.92;100.00
22333;BME280;11334;36.986;-121.936;2023-03-12T06:48:35;101461.84;;;14.99;100.00
22333;BME280;11334;36.986;-121.936;2023-03-12T06:51:05;101465.38;;;15.00;100.00
22333;BME280;11334;36.986;-121.936;2023-03-12T06:53:31;101468.88;;;14.92;100.00
22333;BME280;11334;36.986;-121.936;2023-03-12T06:55:58;101473.53;;;14.90;100.00
22333;BME280;11334;36.986;-121.936;2023-03-12T06:58:25;101465.19;;;14.93;100.00
22333;BME280;11334;36.986;-121.936;2023-03-12T07:00:51;101471.53;;;14.92;100.00
22333;BME280;11334;36.986;-121.936;2023-03-12T07:03:18;101465.19;;;14.93;100.00
22333;BME280;11334;36.986;-121.936;2023-03-12T07:05:46;101463.19;;;14.87;100.00
22333;BME280;11334;36.986;-121.936;2023-03-12T07:08:13;101480.72;;;14.90;100.00
22333;BME280;11334;36.986;-121.936;2023-03-12T07:10:40;101468.69;;;14.86;100.00
22333;BME280;11334;36.986;-121.936;2023-03-12T07:13:06;101473.34;;;14.92;100.00
22333;BME280;11334;36.986;-121.936;2023-03-12T07:15:33;101466.34;;;14.91;100.00
22333;BME280;11334;36.986;-121.936;2023-03-12T07:18:04;101471.84;;;14.89;100.00
22333;BME280;11334;36.986;-121.936;2023-03-12T07:20:31;101460.69;;;14.86;100.00
22333;BME280;11334;36.986;-121.936;2023-03-12T07:22:59;101457.69;;;14.81;100.00
22333;BME280;11334;36.986;-121.936;2023-03-12T07:25:25;101455.50;;;14.84;100.00
22333;BME280;11334;36.986;-121.936;2023-03-12T07:27:51;101459.69;;;14.87;100.00
22333;BME280;11334;36.986;-121.936;2023-03-12T07:30:17;101469.19;;;14.89;100.00
22333;BME280;11334;36.986;-121.936;2023-03-12T07:32:44;101468.84;;;14.84;100.00
22333;BME280;11334;36.986;-121.936;2023-03-12T07:35:10;101468.00;;;14.84;100.00
22333;BME280;11334;36.986;-121.936;2023-03-12T07:37:36;101459.53;;;14.81;100.00
22333;BME280;11334;36.986;-121.936;2023-03-12T07:40:03;101468.69;;;14.86;100.00
22333;BME280;11334;36.986;-121.936;2023-03-12T07:42:33;101463.34;;;14.86;100.00
22333;BME280;11334;36.986;-121.936;2023-03-12T07:44:59;101455.19;;;14.87;100.00
22333;BME280;11334;36.986;-121.936;2023-03-12T07:47:25;101458.19;;;14.92;100.00
22333;BME280;11334;36.986;-121.936;2023-03-12T07:49:52;101457.34;;;14.92;100.00
22333;BME280;11334;36.986;-121.936;2023-03-12T07:52:18;101468.00;;;14.92;100.00
22333;BME280;11334;36.986;-121.936;2023-03-12T07:54:45;101471.84;;;14.89;100.00
22333;BME280;11334;36.986;-121.936;2023-03-12T07:57:11;101471.03;;;14.89;100.00
22333;BME280;11334;36.986;-121.936;2023-03-12T07:59:37;101470.19;;;14.88;100.00
22333;BME280;11334;36.986;-121.936;2023-03-12T08:02:04;101479.84;;;14.89;100.00
22333;BME280;11334;36.986;-121.936;2023-03-12T08:04:31;101480.88;;;14.88;100.00
22333;BME280;11334;36.986;-121.936;2023-03-12T08:06:57;101476.34;;;14.89;100.00
22333;BME280;11334;36.986;-121.936;2023-03-12T08:09:24;101486.19;;;14.88;100.00
22333;BME280;11334;36.986;-121.936;2023-03-12T08:11:50;101489.53;;;14.90;100.00
22333;BME280;11334;36.986;-121.936;2023-03-12T08:14:16;101484.22;;;14.83;100.00
22333;BME280;11334;36.986;-121.936;2023-03-12T08:16:42;101496.19;;;14.79;100.00
22333;BME280;11334;36.986;-121.936;2023-03-12T08:19:09;101491.69;;;14.79;100.00
22333;BME280;11334;36.986;-121.936;2023-03-12T08:21:35;101491.34;;;14.82;100.00
22333;BME280;11334;36.986;-121.936;2023-03-12T08:24:02;101498.19;;;14.84;100.00
22333;BME280;11334;36.986;-121.936;2023-03-12T08:26:28;101486.06;;;14.90;100.00
22333;BME280;11334;36.986;-121.936;2023-03-12T08:28:54;101485.19;;;14.89;100.00
22333;BME280;11334;36.986;-121.936;2023-03-12T08:31:21;101490.03;;;14.86;100.00
22333;BME280;11334;36.986;-121.936;2023-03-12T08:33:47;101479.69;;;14.83;100.00
22333;BME280;11334;36.986;-121.936;2023-03-12T08:36:14;101478.34;;;14.87;100.00
22333;BME280;11334;36.986;-121.936;2023-03-12T08:38:40;101477.38;;;14.88;100.00
22333;BME280;11334;36.986;-121.936;2023-03-12T08:41:06;101475.69;;;14.87;100.00
22333;BME280;11334;36.986;-121.936;2023-03-12T08:43:32;101478.34;;;14.87;100.00
22333;BME280;11334;36.986;-121.936;2023-03-12T08:46:01;101479.53;;;14.84;100.00
22333;BME280;11334;36.986;-121.936;2023-03-12T08:48:32;101480.53;;;14.84;100.00
22333;BME280;11334;36.986;-121.936;2023-03-12T08:50:59;101486.88;;;14.83;100.00
22333;BME280;11334;36.986;-121.936;2023-03-12T08:53:29;101486.34;;;14.87;100.00
22333;BME280;11334;36.986;-121.936;2023-03-12T08:55:56;101501.88;;;14.84;100.00
22333;BME280;11334;36.986;-121.936;2023-03-12T08:58:24;101494.22;;;14.88;100.00
22333;BME280;11334;36.986;-121.936;2023-03-12T09:00:51;101500.91;;;14.92;100.00
22333;BME280;11334;36.986;-121.936;2023-03-12T09:03:17;101502.56;;;14.85;100.00
22333;BME280;11334;36.986;-121.936;2023-03-12T09:05:44;101503.88;;;14.89;100.00
22333;BME280;11334;36.986;-121.936;2023-03-12T09:08:11;101507.72;;;14.95;100.00
22333;BME280;11334;36.986;-121.936;2023-03-12T09:10:37;101521.91;;;14.95;100.00
22333;BME280;11334;36.986;-121.936;2023-03-12T09:13:04;101500.84;;;14.84;100.00
22333;BME280;11334;36.986;-121.936;2023-03-12T09:15:30;101518.22;;;14.88;100.00
22333;BME280;11334;36.986;-121.936;2023-03-12T09:17:57;101516.22;;;14.90;100.00
22333;BME280;11334;36.986;-121.936;2023-03-12T09:20:24;101509.38;;;14.88;100.00
22333;BME280;11334;36.986;-121.936;2023-03-12T09:22:50;101512.88;;;14.88;100.00
22333;BME280;11334;36.986;-121.936;2023-03-12T09:25:17;101509.38;;;14.88;100.00
22333;BME280;11334;36.986;-121.936;2023-03-12T09:27:45;101491.38;;;14.90;100.00
22333;BME280;11334;36.986;-121.936;2023-03-12T09:30:18;101501.03;;;14.83;100.00
22333;BME280;11334;36.986;-121.936;2023-03-12T09:32:45;101492.84;;;14.84;100.00
22333;BME280;11334;36.986;-121.936;2023-03-12T09:35:13;101501.72;;;14.85;100.00
22333;BME280;11334;36.986;-121.936;2023-03-12T09:37:41;101487.19;;;14.80;100.00
22333;BME280;11334;36.986;-121.936;2023-03-12T09:40:10;101503.88;;;14.89;100.00
22333;BME280;11334;36.986;-121.936;2023-03-12T09:42:47;101503.88;;;14.89;100.00
22333;BME280;11334;36.986;-121.936;2023-03-12T09:45:25;101503.38;;;14.94;100.00
22333;BME280;11334;36.986;-121.936;2023-03-12T09:47:55;101495.56;;;14.92;100.00
22333;BME280;11334;36.986;-121.936;2023-03-12T09:55:56;101508.38;;;14.97;100.00
22333;BME280;11334;36.986;-121.936;2023-03-12T09:58:32;101525.06;;;14.99;100.00
22333;BME280;11334;36.986;-121.936;2023-03-12T10:09:28;101528.22;;;14.86;100.00
22333;BME280;11334;36.986;-121.936;2023-03-12T10:23:19;101507.88;;;14.78;100.00
22333;BME280;11334;36.986;-121.936;2023-03-12T10:26:57;101505.84;;;14.80;100.00
22333;BME280;11334;36.986;-121.936;2023-03-12T10:29:33;101493.69;;;14.77;100.00
22333;BME280;11334;36.986;-121.936;2023-03-12T10:32:04;101495.53;;;14.77;100.00
22333;BME280;11334;36.986;-121.936;2023-03-12T10:34:45;101499.88;;;14.78;100.00
22333;BME280;11334;36.986;-121.936;2023-03-12T10:37:25;101500.38;;;14.81;100.00
22333;BME280;11334;36.986;-121.936;2023-03-12T10:39:54;101480.88;;;14.73;100.00
22333;BME280;11334;36.986;-121.936;2023-03-12T10:42:23;101485.53;;;14.79;100.00
22333;BME280;11334;36.986;-121.936;2023-03-12T10:44:58;101498.53;;;14.82;100.00
22333;BME280;11334;36.986;-121.936;2023-03-12T10:50:20;101485.69;;;14.69;100.00
22333;BME280;11334;36.986;-121.936;2023-03-12T10:52:49;101465.50;;;14.67;100.00
22333;BME280;11334;36.986;-121.936;2023-03-12T10:55:24;101475.19;;;14.76;100.00
22333;BME280;11334;36.986;-121.936;2023-03-12T10:57:52;101483.00;;;14.69;100.00
22333;BME280;11334;36.986;-121.936;2023-03-12T11:00:27;101471.84;;;14.66;100.00
22333;BME280;11334;36.986;-121.936;2023-03-12T11:05:28;101466.19;;;14.69;100.00
22333;BME280;11334;36.986;-121.936;2023-03-12T11:07:56;101462.19;;;14.73;100.00
22333;BME280;11334;36.986;-121.936;2023-03-12T11:10:45;101453.66;;;14.53;100.00
22333;BME280;11334;36.986;-121.936;2023-03-12T11:15:48;101457.16;;;14.70;100.00
22333;BME280;11334;36.986;-121.936;2023-03-12T11:18:28;101449.16;;;14.70;100.00
22333;BME280;11334;36.986;-121.936;2023-03-12T11:23:33;101449.34;;;14.68;100.00
22333;BME280;11334;36.986;-121.936;2023-03-12T11:26:03;101429.81;;;14.60;100.00
22333;BME280;11334;36.986;-121.936;2023-03-12T11:28:38;101451.34;;;14.74;100.00
22333;BME280;11334;36.986;-121.936;2023-03-12T11:31:29;101443.84;;;14.78;100.00
22333;BME280;11334;36.986;-121.936;2023-03-12T11:33:59;101442.16;;;14.77;100.00
22333;BME280;11334;36.986;-121.936;2023-03-12T11:36:54;101431.16;;;14.72;100.00
22333;BME280;11334;36.986;-121.936;2023-03-12T11:39:49;101437.84;;;14.68;100.00
22333;BME280;11334;36.986;-121.936;2023-03-12T11:50:02;101421.00;;;14.83;100.00
22333;BME280;11334;36.986;-121.936;2023-03-12T12:08:51;101426.81;;;14.86;100.00
22333;BME280;11334;36.986;-121.936;2023-03-12T12:19:43;101433.66;;;14.81;100.00
22333;BME280;11334;36.986;-121.936;2023-03-12T12:25:17;101436.69;;;14.78;100.00
22333;BME280;11334;36.986;-121.936;2023-03-12T12:27:49;101433.34;;;14.68;100.00
22333;BME280;11334;36.986;-121.936;2023-03-12T12:30:53;101429.31;;;14.72;100.00
22333;BME280;11334;36.986;-121.936;2023-03-12T12:33:48;101427.66;;;14.79;100.00
22333;BME280;11334;36.986;-121.936;2023-03-12T12:36:17;101420.50;;;14.72;100.00
22333;BME280;11334;36.986;-121.936;2023-03-12T12:38:53;101439.34;;;14.86;100.00
22333;BME280;11334;36.986;-121.936;2023-03-12T12:41:25;101426.84;;;14.79;100.00
22333;BME280;11334;36.986;-121.936;2023-03-12T12:43:57;101430.84;;;14.83;100.00
22333;BME280;11334;36.986;-121.936;2023-03-12T12:46:36;101425.81;;;14.80;100.00
22333;BME280;11334;36.986;-121.936;2023-03-12T12:49:18;101421.97;;;14.82;100.00
22333;BME280;11334;36.986;-121.936;2023-03-12T12:51:51;101420.00;;;14.84;100.00
22333;BME280;11334;36.986;-121.936;2023-03-12T12:57:36;101420.81;;;14.84;100.00
22333;BME280;11334;36.986;-121.936;2023-03-12T13:02:48;101404.81;;;14.77;100.00
22333;BME280;11334;36.986;-121.936;2023-03-12T13:05:28;101406.81;;;14.75;100.00
22333;BME280;11334;36.986;-121.936;2023-03-12T13:08:06;101409.66;;;14.73;100.00
22333;BME280;11334;36.986;-121.936;2023-03-12T13:10:38;101410.16;;;14.77;100.00
22333;BME280;11334;36.986;-121.936;2023-03-12T13:13:23;101410.00;;;14.78;100.00
22333;BME280;11334;36.986;-121.936;2023-03-12T13:15:50;101409.81;;;14.80;100.00
22333;BME280;11334;36.986;-121.936;2023-03-12T13:18:20;101405.50;;;14.79;100.00
22333;BME280;11334;36.986;-121.936;2023-03-12T13:26:30;101407.50;;;14.77;100.00
22333;BME280;11334;36.986;-121.936;2023-03-12T13:31:56;101407.97;;;14.72;100.00
22333;BME280;11334;36.986;-121.936;2023-03-12T13:36:57;101412.31;;;14.81;100.00
22333;BME280;11334;36.986;-121.936;2023-03-12T13:39:36;101411.31;;;14.82;100.00
22333;BME280;11334;36.986;-121.936;2023-03-12T13:44:50;101402.00;;;14.70;100.00
22333;BME280;11334;36.986;-121.936;2023-03-12T13:47:25;101411.16;;;14.76;100.00
22333;BME280;11334;36.986;-121.936;2023-03-12T13:49:55;101413.50;;;14.79;100.00
22333;BME280;11334;36.986;-121.936;2023-03-12T13:57:43;101427.16;;;14.84;100.00